sensor_id;sensor_type;location;lat;lon;timestamp;temperature;humidity
8220;DHT22;4151;51.110;7.020;2023-09-07T00:00:39;17.80;99.90
8220;DHT22;4151;51.110;7.020;2023-09-07T00:03:05;17.70;99.90
8220;DHT22;4151;51.110;7.020;2023-09-07T00:05:31;17.70;99.90
8220;DHT22;4151;51.110;7.020;2023-09-07T00:07:57;17.60;99.90
8220;DHT22;4151;51.110;7.020;2023-09-07T00:10:23;17.60;99.90
8220;DHT22;4151;51.110;7.020;2023-09-07T00:12:48;17.50;99.90
8220;DHT22;4151;51.110;7.020;2023-09-07T00:15:14;17.50;99.90
8220;DHT22;4151;51.110;7.020;2023-09-07T00:17:40;17.40;99.90
8220;DHT22;4151;51.110;7.020;2023-09-07T00:20:06;17.40;99.90
8220;DHT22;4151;51.110;7.020;2023-09-07T00:22:39;17.30;99.90
8220;DHT22;4151;51.110;7.020;2023-09-07T00:25:05;17.30;99.90
8220;DHT22;4151;51.110;7.020;2023-09-07T00:27:32;17.30;99.90
8220;DHT22;4151;51.110;7.020;2023-09-07T00:29:59;17.20;99.90
8220;DHT22;4151;51.110;7.020;2023-09-07T00:32:25;17.20;99.90
8220;DHT22;4151;51.110;7.020;2023-09-07T00:34:50;17.20;99.90
8220;DHT22;4151;51.110;7.020;2023-09-07T00:37:16;17.20;99.90
8220;DHT22;4151;51.110;7.020;2023-09-07T00:39:41;17.10;99.90
8220;DHT22;4151;51.110;7.020;2023-09-07T00:42:07;17.10;99.90
8220;DHT22;4151;51.110;7.020;2023-09-07T00:44:32;17.10;99.90
8220;DHT22;4151;51.110;7.020;2023-09-07T00:46:58;17.10;99.90
8220;DHT22;4151;51.110;7.020;2023-09-07T00:49:24;17.10;99.90
8220;DHT22;4151;51.110;7.020;2023-09-07T00:51:51;17.10;99.90
8220;DHT22;4151;51.110;7.020;2023-09-07T00:54:18;17.10;99.90
8220;DHT22;4151;51.110;7.020;2023-09-07T00:56:44;17.10;99.90
8220;DHT22;4151;51.110;7.020;2023-09-07T00:59:09;17.00;99.90
8220;DHT22;4151;51.110;7.020;2023-09-07T01:01:36;16.90;99.90
8220;DHT22;4151;51.110;7.020;2023-09-07T01:04:02;16.90;99.90
8220;DHT22;4151;51.110;7.020;2023-09-07T01:06:31;16.90;99.90
8220;DHT22;4151;51.110;7.020;2023-09-07T01:09:03;16.90;99.90
8220;DHT22;4151;51.110;7.020;2023-09-07T01:11:36;16.90;99.90
8220;DHT22;4151;51.110;7.020;2023-09-07T01:14:02;16.90;99.90
8220;DHT22;4151;51.110;7.020;2023-09-07T01:16:30;16.80;99.90
8220;DHT22;4151;51.110;7.020;2023-09-07T01:18:56;16.80;99.90
8220;DHT22;4151;51.110;7.020;2023-09-07T01:21:22;16.80;99.90
8220;DHT22;4151;51.110;7.020;2023-09-07T01:23:48;16.90;99.90
8220;DHT22;4151;51.110;7.020;2023-09-07T01:26:15;16.80;99.90
8220;DHT22;4151;51.110;7.020;2023-09-07T01:28:41;16.90;99.90
8220;DHT22;4151;51.110;7.020;2023-09-07T01:31:07;16.80;99.90
8220;DHT22;4151;51.110;7.020;2023-09-07T01:33:33;16.70;99.90
8220;DHT22;4151;51.110;7.020;2023-09-07T01:35:58;16.70;99.90
8220;DHT22;4151;51.110;7.020;2023-09-07T01:38:24;16.60;99.90
8220;DHT22;4151;51.110;7.020;2023-09-07T01:40:50;16.60;99.90
8220;DHT22;4151;51.110;7.020;2023-09-07T01:43:15;16.60;99.90
8220;DHT22;4151;51.110;7.020;2023-09-07T01:45:41;16.60;99.90
8220;DHT22;4151;51.110;7.020;2023-09-07T01:48:11;16.50;99.90
8220;DHT22;4151;51.110;7.020;2023-09-07T01:50:38;16.50;99.90
8220;DHT22;4151;51.110;7.020;2023-09-07T01:53:03;16.50;99.90
8220;DHT22;4151;51.110;7.020;2023-09-07T01:55:30;16.40;99.90
8220;DHT22;4151;51.110;7.020;2023-09-07T01:57:56;16.40;99.90
8220;DHT22;4151;51.110;7.020;2023-09-07T02:00:21;16.40;99.90
8220;DHT22;4151;51.110;7.020;2023-09-07T02:02:47;16.40;99.90
8220;DHT22;4151;51.110;7.020;2023-09-07T02:05:12;16.40;99.90
8220;DHT22;4151;51.110;7.020;2023-09-07T02:07:38;16.40;99.90
8220;DHT22;4151;51.110;7.020;2023-09-07T02:10:04;16.40;99.90
8220;DHT22;4151;51.110;7.020;2023-09-07T02:12:30;16.30;99.90
8220;DHT22;4151;51.110;7.020;2023-09-07T02:14:55;16.40;99.90
8220;DHT22;4151;51.110;7.020;2023-09-07T02:17:21;16.50;99.90
8220;DHT22;4151;51.110;7.020;2023-09-07T02:19:47;16.50;99.90
8220;DHT22;4151;51.110;7.020;2023-09-07T02:22:12;16.50;99.90
8220;DHT22;4151;51.110;7.020;2023-09-07T02:24:38;16.40;99.90
8220;DHT22;4151;51.110;7.020;2023-09-07T02:27:04;16.40;99.90
8220;DHT22;4151;51.110;7.020;2023-09-07T02:29:29;16.40;99.90
8220;DHT22;4151;51.110;7.020;2023-09-07T02:31:55;16.30;99.90
8220;DHT22;4151;51.110;7.020;2023-09-07T02:34:22;16.30;99.90
8220;DHT22;4151;51.110;7.020;2023-09-07T02:36:47;16.30;99.90
8220;DHT22;4151;51.110;7.020;2023-09-07T02:39:13;16.20;99.90
8220;DHT22;4151;51.110;7.020;2023-09-07T02:41:39;16.20;99.90
8220;DHT22;4151;51.110;7.020;2023-09-07T02:44:05;16.20;99.90
8220;DHT22;4151;51.110;7.020;2023-09-07T02:46:30;16.10;99.90
8220;DHT22;4151;51.110;7.020;2023-09-07T02:48:59;16.10;99.90
8220;DHT22;4151;51.110;7.020;2023-09-07T02:51:25;16.10;99.90
8220;DHT22;4151;51.110;7.020;2023-09-07T02:53:51;16.10;99.90
8220;DHT22;4151;51.110;7.020;2023-09-07T02:56:17;16.10;99.90
8220;DHT22;4151;51.110;7.020;2023-09-07T02:58:43;16.00;99.90
8220;DHT22;4151;51.110;7.020;2023-09-07T03:01:09;16.00;99.90
8220;DHT22;4151;51.110;7.020;2023-09-07T03:03:35;15.90;99.90
8220;DHT22;4151;51.110;7.020;2023-09-07T03:06:11;15.90;99.90
8220;DHT22;4151;51.110;7.020;2023-09-07T03:08:38;15.90;99.90
8220;DHT22;4151;51.110;7.020;2023-09-07T03:11:05;15.80;99.90
8220;DHT22;4151;51.110;7.020;2023-09-07T03:13:31;15.80;99.90
8220;DHT22;4151;51.110;7.020;2023-09-07T03:15:58;15.70;99.90
8220;DHT22;4151;51.110;7.020;2023-09-07T03:18:23;15.70;99.90
8220;DHT22;4151;51.110;7.020;2023-09-07T03:20:54;15.70;99.90
8220;DHT22;4151;51.110;7.020;2023-09-07T03:23:20;15.70;99.90
8220;DHT22;4151;51.110;7.020;2023-09-07T03:25:46;15.70;99.90
8220;DHT22;4151;51.110;7.020;2023-09-07T03:28:12;15.70;99.90
8220;DHT22;4151;51.110;7.020;2023-09-07T03:30:38;15.60;99.90
8220;DHT22;4151;51.110;7.020;2023-09-07T03:33:04;15.60;99.90
8220;DHT22;4151;51.110;7.020;2023-09-07T03:35:30;15.60;99.90
8220;DHT22;4151;51.110;7.020;2023-09-07T03:37:56;15.60;99.90
8220;DHT22;4151;51.110;7.020;2023-09-07T03:40:21;15.90;99.90
8220;DHT22;4151;51.110;7.020;2023-09-07T03:42:47;16.20;99.90
8220;DHT22;4151;51.110;7.020;2023-09-07T03:45:13;16.60;99.90
8220;DHT22;4151;51.110;7.020;2023-09-07T03:47:39;16.90;99.90
8220;DHT22;4151;51.110;7.020;2023-09-07T03:50:05;17.20;99.90
8220;DHT22;4151;51.110;7.020;2023-09-07T03:52:31;17.60;99.90
8220;DHT22;4151;51.110;7.020;2023-09-07T03:54:57;18.00;99.90
8220;DHT22;4151;51.110;7.020;2023-09-07T03:57:23;18.20;99.90
8220;DHT22;4151;51.110;7.020;2023-09-07T03:59:49;18.50;99.90
8220;DHT22;4151;51.110;7.020;2023-09-07T04:02:15;18.90;99.90
8220;DHT22;4151;51.110;7.020;2023-09-07T04:04:42;19.10;99.90
8220;DHT22;4151;51.110;7.020;2023-09-07T04:07:08;19.20;99.90
8220;DHT22;4151;51.110;7.020;2023-09-07T04:09:33;19.30;99.90
8220;DHT22;4151;51.110;7.020;2023-09-07T04:11:59;19.40;99.90
8220;DHT22;4151;51.110;7.020;2023-09-07T04:14:25;19.50;99.90
8220;DHT22;4151;51.110;7.020;2023-09-07T04:16:51;19.50;99.90
8220;DHT22;4151;51.110;7.020;2023-09-07T04:19:17;19.60;99.90
8220;DHT22;4151;51.110;7.020;2023-09-07T04:21:42;19.60;99.90
8220;DHT22;4151;51.110;7.020;2023-09-07T04:24:08;19.60;99.90
8220;DHT22;4151;51.110;7.020;2023-09-07T04:26:34;19.60;99.90
8220;DHT22;4151;51.110;7.020;2023-09-07T04:28:59;19.60;99.90
8220;DHT22;4151;51.110;7.020;2023-09-07T04:31:25;19.60;99.90
8220;DHT22;4151;51.110;7.020;2023-09-07T04:33:53;19.60;99.90
8220;DHT22;4151;51.110;7.020;2023-09-07T04:36:19;19.70;99.90
8220;DHT22;4151;51.110;7.020;2023-09-07T04:38:44;19.70;99.90
8220;DHT22;4151;51.110;7.020;2023-09-07T04:41:12;19.70;99.90
8220;DHT22;4151;51.110;7.020;2023-09-07T04:43:38;19.70;99.90
8220;DHT22;4151;51.110;7.020;2023-09-07T04:46:09;19.70;99.90
8220;DHT22;4151;51.110;7.020;2023-09-07T04:48:35;19.70;99.90
8220;DHT22;4151;51.110;7.020;2023-09-07T04:51:01;19.70;99.90
8220;DHT22;4151;51.110;7.020;2023-09-07T04:53:29;19.80;99.90
8220;DHT22;4151;51.110;7.020;2023-09-07T04:55:56;19.90;99.90
8220;DHT22;4151;51.110;7.020;2023-09-07T04:58:22;19.90;99.90
8220;DHT22;4151;51.110;7.020;2023-09-07T05:00:47;19.90;99.90
8220;DHT22;4151;51.110;7.020;2023-09-07T05:03:13;19.90;99.90
8220;DHT22;4151;51.110;7.020;2023-09-07T05:05:39;19.90;99.90
8220;DHT22;4151;51.110;7.020;2023-09-07T05:08:05;19.90;99.90
8220;DHT22;4151;51.110;7.020;2023-09-07T05:10:34;19.90;99.90
8220;DHT22;4151;51.110;7.020;2023-09-07T05:13:00;20.00;99.90
8220;DHT22;4151;51.110;7.020;2023-09-07T05:15:26;20.00;99.90
8220;DHT22;4151;51.110;7.020;2023-09-07T05:17:52;20.00;99.90
8220;DHT22;4151;51.110;7.020;2023-09-07T05:20:18;20.00;99.90
8220;DHT22;4151;51.110;7.020;2023-09-07T05:22:43;20.00;99.90
8220;DHT22;4151;51.110;7.020;2023-09-07T05:25:09;20.00;99.90
8220;DHT22;4151;51.110;7.020;2023-09-07T05:27:35;20.00;99.90
8220;DHT22;4151;51.110;7.020;2023-09-07T05:30:02;20.10;99.90
8220;DHT22;4151;51.110;7.020;2023-09-07T05:32:27;20.10;99.90
8220;DHT22;4151;51.110;7.020;2023-09-07T05:34:53;20.10;99.90
8220;DHT22;4151;51.110;7.020;2023-09-07T05:37:19;20.10;99.90
8220;DHT22;4151;51.110;7.020;2023-09-07T05:39:44;20.20;99.90
8220;DHT22;4151;51.110;7.020;2023-09-07T05:42:10;20.20;99.90
8220;DHT22;4151;51.110;7.020;2023-09-07T05:44:35;20.20;99.90
8220;DHT22;4151;51.110;7.020;2023-09-07T05:47:01;19.90;99.90
8220;DHT22;4151;51.110;7.020;2023-09-07T05:49:27;19.70;99.90
8220;DHT22;4151;51.110;7.020;2023-09-07T05:51:53;19.50;99.90
8220;DHT22;4151;51.110;7.020;2023-09-07T05:54:19;19.40;99.90
8220;DHT22;4151;51.110;7.020;2023-09-07T05:56:44;19.30;99.90
8220;DHT22;4151;51.110;7.020;2023-09-07T05:59:10;19.30;99.90
8220;DHT22;4151;51.110;7.020;2023-09-07T06:01:36;19.20;99.90
8220;DHT22;4151;51.110;7.020;2023-09-07T06:04:01;19.20;99.90
8220;DHT22;4151;51.110;7.020;2023-09-07T06:06:27;19.20;99.90
8220;DHT22;4151;51.110;7.020;2023-09-07T06:08:53;19.50;99.90
8220;DHT22;4151;51.110;7.020;2023-09-07T06:11:19;19.70;99.90
8220;DHT22;4151;51.110;7.020;2023-09-07T06:13:44;19.90;99.90
8220;DHT22;4151;51.110;7.020;2023-09-07T06:16:12;20.10;99.90
8220;DHT22;4151;51.110;7.020;2023-09-07T06:18:38;20.20;99.90
8220;DHT22;4151;51.110;7.020;2023-09-07T06:21:04;20.10;99.90
8220;DHT22;4151;51.110;7.020;2023-09-07T06:23:31;20.00;99.90
8220;DHT22;4151;51.110;7.020;2023-09-07T06:25:57;19.80;99.90
8220;DHT22;4151;51.110;7.020;2023-09-07T06:28:22;19.70;99.90
8220;DHT22;4151;51.110;7.020;2023-09-07T06:30:48;19.60;99.90
8220;DHT22;4151;51.110;7.020;2023-09-07T06:33:13;19.40;99.90
8220;DHT22;4151;51.110;7.020;2023-09-07T06:35:39;19.30;99.90
8220;DHT22;4151;51.110;7.020;2023-09-07T06:38:04;19.30;99.90
8220;DHT22;4151;51.110;7.020;2023-09-07T06:40:30;19.30;99.90
8220;DHT22;4151;51.110;7.020;2023-09-07T06:42:56;19.40;99.90
8220;DHT22;4151;51.110;7.020;2023-09-07T06:45:23;19.40;99.90
8220;DHT22;4151;51.110;7.020;2023-09-07T06:47:51;19.60;99.90
8220;DHT22;4151;51.110;7.020;2023-09-07T06:50:17;19.70;99.90
8220;DHT22;4151;51.110;7.020;2023-09-07T06:52:42;19.90;99.90
8220;DHT22;4151;51.110;7.020;2023-09-07T06:55:08;20.10;99.90
8220;DHT22;4151;51.110;7.020;2023-09-07T06:57:34;20.40;99.90
8220;DHT22;4151;51.110;7.020;2023-09-07T07:00:00;20.60;99.90
8220;DHT22;4151;51.110;7.020;2023-09-07T07:02:25;20.80;99.90
8220;DHT22;4151;51.110;7.020;2023-09-07T07:04:51;21.00;99.90
8220;DHT22;4151;51.110;7.020;2023-09-07T07:07:17;21.20;99.90
8220;DHT22;4151;51.110;7.020;2023-09-07T07:09:43;21.40;99.90
8220;DHT22;4151;51.110;7.020;2023-09-07T07:12:09;21.60;99.90
8220;DHT22;4151;51.110;7.020;2023-09-07T07:14:34;21.70;99.90
8220;DHT22;4151;51.110;7.020;2023-09-07T07:17:00;21.80;99.90
8220;DHT22;4151;51.110;7.020;2023-09-07T07:19:28;22.00;99.90
8220;DHT22;4151;51.110;7.020;2023-09-07T07:21:54;22.20;99.90
8220;DHT22;4151;51.110;7.020;2023-09-07T07:24:20;22.30;99.90
8220;DHT22;4151;51.110;7.020;2023-09-07T07:26:46;22.40;99.90
8220;DHT22;4151;51.110;7.020;2023-09-07T07:29:11;22.50;99.90
8220;DHT22;4151;51.110;7.020;2023-09-07T07:31:38;22.70;99.90
8220;DHT22;4151;51.110;7.020;2023-09-07T07:34:04;22.70;99.90
8220;DHT22;4151;51.110;7.020;2023-09-07T07:36:29;22.80;99.90
8220;DHT22;4151;51.110;7.020;2023-09-07T07:38:56;22.90;99.90
8220;DHT22;4151;51.110;7.020;2023-09-07T07:41:21;22.90;99.90
8220;DHT22;4151;51.110;7.020;2023-09-07T07:43:47;23.00;99.90
8220;DHT22;4151;51.110;7.020;2023-09-07T07:46:13;23.10;99.90
8220;DHT22;4151;51.110;7.020;2023-09-07T07:48:41;23.20;99.90
8220;DHT22;4151;51.110;7.020;2023-09-07T07:51:07;23.30;99.90
8220;DHT22;4151;51.110;7.020;2023-09-07T07:53:34;23.50;99.90
8220;DHT22;4151;51.110;7.020;2023-09-07T07:56:00;23.60;99.90
8220;DHT22;4151;51.110;7.020;2023-09-07T07:58:25;23.60;99.90
8220;DHT22;4151;51.110;7.020;2023-09-07T08:00:51;23.60;99.90
8220;DHT22;4151;51.110;7.020;2023-09-07T08:03:16;23.70;99.90
8220;DHT22;4151;51.110;7.020;2023-09-07T08:05:42;23.80;99.90
8220;DHT22;4151;51.110;7.020;2023-09-07T08:08:08;23.90;99.90
8220;DHT22;4151;51.110;7.020;2023-09-07T08:10:37;24.00;99.90
8220;DHT22;4151;51.110;7.020;2023-09-07T08:13:03;24.30;99.90
8220;DHT22;4151;51.110;7.020;2023-09-07T08:15:29;24.50;99.90
8220;DHT22;4151;51.110;7.020;2023-09-07T08:17:55;24.70;99.90
8220;DHT22;4151;51.110;7.020;2023-09-07T08:20:21;24.90;99.90
8220;DHT22;4151;51.110;7.020;2023-09-07T08:22:47;25.10;99.90
8220;DHT22;4151;51.110;7.020;2023-09-07T08:25:13;25.20;99.90
8220;DHT22;4151;51.110;7.020;2023-09-07T08:27:42;25.40;99.90
8220;DHT22;4151;51.110;7.020;2023-09-07T08:30:15;25.70;99.90
8220;DHT22;4151;51.110;7.020;2023-09-07T08:32:44;26.00;99.90
8220;DHT22;4151;51.110;7.020;2023-09-07T08:35:11;26.50;99.90
8220;DHT22;4151;51.110;7.020;2023-09-07T08:37:40;26.90;99.90
8220;DHT22;4151;51.110;7.020;2023-09-07T08:40:06;27.10;99.90
8220;DHT22;4151;51.110;7.020;2023-09-07T08:42:35;27.20;99.90
8220;DHT22;4151;51.110;7.020;2023-09-07T08:45:03;27.10;99.90
8220;DHT22;4151;51.110;7.020;2023-09-07T08:47:34;27.00;99.90
8220;DHT22;4151;51.110;7.020;2023-09-07T08:49:59;26.90;99.90
8220;DHT22;4151;51.110;7.020;2023-09-07T08:52:26;26.70;99.90
8220;DHT22;4151;51.110;7.020;2023-09-07T08:54:52;26.80;99.90
8220;DHT22;4151;51.110;7.020;2023-09-07T08:57:18;27.00;99.90
8220;DHT22;4151;51.110;7.020;2023-09-07T08:59:46;27.40;99.90
8220;DHT22;4151;51.110;7.020;2023-09-07T09:02:11;27.90;99.90
8220;DHT22;4151;51.110;7.020;2023-09-07T09:04:37;27.90;99.90
8220;DHT22;4151;51.110;7.020;2023-09-07T09:07:04;27.70;99.90
8220;DHT22;4151;51.110;7.020;2023-09-07T09:09:30;27.90;99.90
8220;DHT22;4151;51.110;7.020;2023-09-07T09:12:09;28.00;99.90
8220;DHT22;4151;51.110;7.020;2023-09-07T09:14:35;28.10;99.90
8220;DHT22;4151;51.110;7.020;2023-09-07T09:17:01;28.10;99.90
8220;DHT22;4151;51.110;7.020;2023-09-07T09:19:31;28.10;99.90
8220;DHT22;4151;51.110;7.020;2023-09-07T09:21:57;28.80;99.90
8220;DHT22;4151;51.110;7.020;2023-09-07T09:24:23;29.30;99.90
8220;DHT22;4151;51.110;7.020;2023-09-07T09:26:48;29.90;99.90
8220;DHT22;4151;51.110;7.020;2023-09-07T09:29:14;29.80;99.90
8220;DHT22;4151;51.110;7.020;2023-09-07T09:31:41;30.00;99.90
8220;DHT22;4151;51.110;7.020;2023-09-07T09:34:07;29.80;99.90
8220;DHT22;4151;51.110;7.020;2023-09-07T09:36:33;29.60;99.90
8220;DHT22;4151;51.110;7.020;2023-09-07T09:39:00;29.70;99.90
8220;DHT22;4151;51.110;7.020;2023-09-07T09:41:26;29.60;99.90
8220;DHT22;4151;51.110;7.020;2023-09-07T09:43:53;29.60;99.90
8220;DHT22;4151;51.110;7.020;2023-09-07T09:46:22;29.70;99.90
8220;DHT22;4151;51.110;7.020;2023-09-07T09:48:49;30.00;99.90
8220;DHT22;4151;51.110;7.020;2023-09-07T09:51:15;30.20;99.90
8220;DHT22;4151;51.110;7.020;2023-09-07T09:53:42;30.30;99.90
8220;DHT22;4151;51.110;7.020;2023-09-07T09:56:08;30.40;99.90
8220;DHT22;4151;51.110;7.020;2023-09-07T09:58:34;31.10;99.90
8220;DHT22;4151;51.110;7.020;2023-09-07T10:01:00;31.40;99.90
8220;DHT22;4151;51.110;7.020;2023-09-07T10:03:38;31.70;99.90
8220;DHT22;4151;51.110;7.020;2023-09-07T10:06:12;32.00;99.90
8220;DHT22;4151;51.110;7.020;2023-09-07T10:08:37;31.80;99.90
8220;DHT22;4151;51.110;7.020;2023-09-07T10:11:09;32.20;99.90
8220;DHT22;4151;51.110;7.020;2023-09-07T10:13:35;32.60;99.90
8220;DHT22;4151;51.110;7.020;2023-09-07T10:16:05;32.80;99.90
8220;DHT22;4151;51.110;7.020;2023-09-07T10:18:35;32.70;99.90
8220;DHT22;4151;51.110;7.020;2023-09-07T10:21:01;32.50;99.90
8220;DHT22;4151;51.110;7.020;2023-09-07T10:23:39;32.30;99.90
8220;DHT22;4151;51.110;7.020;2023-09-07T10:26:09;32.40;99.90
8220;DHT22;4151;51.110;7.020;2023-09-07T10:28:35;32.80;99.90
8220;DHT22;4151;51.110;7.020;2023-09-07T10:33:29;33.80;99.90
8220;DHT22;4151;51.110;7.020;2023-09-07T10:35:55;34.30;99.90
8220;DHT22;4151;51.110;7.020;2023-09-07T10:38:20;34.10;99.90
8220;DHT22;4151;51.110;7.020;2023-09-07T10:40:47;33.90;99.90
8220;DHT22;4151;51.110;7.020;2023-09-07T10:43:13;33.90;99.90
8220;DHT22;4151;51.110;7.020;2023-09-07T10:45:38;33.80;99.90
8220;DHT22;4151;51.110;7.020;2023-09-07T10:48:04;33.50;99.90
8220;DHT22;4151;51.110;7.020;2023-09-07T10:50:31;33.60;99.90
8220;DHT22;4151;51.110;7.020;2023-09-07T10:53:07;33.90;99.90
8220;DHT22;4151;51.110;7.020;2023-09-07T10:55:37;33.80;99.90
8220;DHT22;4151;51.110;7.020;2023-09-07T10:58:04;34.30;99.90
8220;DHT22;4151;51.110;7.020;2023-09-07T11:00:29;34.50;99.90
8220;DHT22;4151;51.110;7.020;2023-09-07T11:02:55;34.90;99.90
8220;DHT22;4151;51.110;7.020;2023-09-07T11:05:21;34.80;99.90
8220;DHT22;4151;51.110;7.020;2023-09-07T11:07:46;34.50;99.90
8220;DHT22;4151;51.110;7.020;2023-09-07T11:10:12;34.60;99.90
8220;DHT22;4151;51.110;7.020;2023-09-07T11:12:39;34.70;99.90
8220;DHT22;4151;51.110;7.020;2023-09-07T11:15:08;34.80;99.90
8220;DHT22;4151;51.110;7.020;2023-09-07T11:17:37;35.30;99.90
8220;DHT22;4151;51.110;7.020;2023-09-07T11:20:05;35.70;99.90
8220;DHT22;4151;51.110;7.020;2023-09-07T11:22:32;35.80;99.90
8220;DHT22;4151;51.110;7.020;2023-09-07T11:24:59;35.90;98.70
8220;DHT22;4151;51.110;7.020;2023-09-07T11:27:29;35.60;99.90
8220;DHT22;4151;51.110;7.020;2023-09-07T11:29:56;35.80;99.00
8220;DHT22;4151;51.110;7.020;2023-09-07T11:32:22;35.80;98.80
8220;DHT22;4151;51.110;7.020;2023-09-07T11:34:49;35.90;99.90
8220;DHT22;4151;51.110;7.020;2023-09-07T11:37:15;36.60;99.20
8220;DHT22;4151;51.110;7.020;2023-09-07T11:39:40;36.50;97.40
8220;DHT22;4151;51.110;7.020;2023-09-07T11:42:06;36.40;97.40
8220;DHT22;4151;51.110;7.020;2023-09-07T11:44:31;36.90;97.70
8220;DHT22;4151;51.110;7.020;2023-09-07T11:46:57;37.40;97.10
8220;DHT22;4151;51.110;7.020;2023-09-07T11:49:23;37.20;95.30
8220;DHT22;4151;51.110;7.020;2023-09-07T11:51:49;37.80;96.10
8220;DHT22;4151;51.110;7.020;2023-09-07T11:54:15;38.20;95.10
8220;DHT22;4151;51.110;7.020;2023-09-07T11:56:40;38.70;94.50
8220;DHT22;4151;51.110;7.020;2023-09-07T11:59:08;38.70;93.60
8220;DHT22;4151;51.110;7.020;2023-09-07T12:01:34;38.70;93.10
8220;DHT22;4151;51.110;7.020;2023-09-07T12:04:00;38.50;93.90
8220;DHT22;4151;51.110;7.020;2023-09-07T12:06:26;38.40;93.40
8220;DHT22;4151;51.110;7.020;2023-09-07T12:09:05;38.90;93.40
8220;DHT22;4151;51.110;7.020;2023-09-07T12:11:35;39.50;91.60
8220;DHT22;4151;51.110;7.020;2023-09-07T12:14:00;39.40;90.90
8220;DHT22;4151;51.110;7.020;2023-09-07T12:16:27;38.60;90.80
8220;DHT22;4151;51.110;7.020;2023-09-07T12:18:52;38.40;91.50
8220;DHT22;4151;51.110;7.020;2023-09-07T12:21:18;38.80;89.90
8220;DHT22;4151;51.110;7.020;2023-09-07T12:23:44;39.20;87.80
8220;DHT22;4151;51.110;7.020;2023-09-07T12:26:10;39.40;86.70
8220;DHT22;4151;51.110;7.020;2023-09-07T12:28:35;39.10;85.30
8220;DHT22;4151;51.110;7.020;2023-09-07T12:31:01;38.90;86.60
8220;DHT22;4151;51.110;7.020;2023-09-07T12:33:27;39.20;84.80
8220;DHT22;4151;51.110;7.020;2023-09-07T12:35:55;39.10;84.90
8220;DHT22;4151;51.110;7.020;2023-09-07T12:38:21;39.00;82.40
8220;DHT22;4151;51.110;7.020;2023-09-07T12:40:50;39.00;82.50
8220;DHT22;4151;51.110;7.020;2023-09-07T12:43:15;39.10;82.30
8220;DHT22;4151;51.110;7.020;2023-09-07T12:45:41;39.30;81.90
8220;DHT22;4151;51.110;7.020;2023-09-07T12:48:07;39.40;80.30
8220;DHT22;4151;51.110;7.020;2023-09-07T12:50:33;39.30;78.60
8220;DHT22;4151;51.110;7.020;2023-09-07T12:52:58;38.40;80.90
8220;DHT22;4151;51.110;7.020;2023-09-07T12:55:24;38.40;77.80
8220;DHT22;4151;51.110;7.020;2023-09-07T12:57:50;38.00;78.10
8220;DHT22;4151;51.110;7.020;2023-09-07T13:00:15;38.00;80.40
8220;DHT22;4151;51.110;7.020;2023-09-07T13:02:41;38.40;80.30
8220;DHT22;4151;51.110;7.020;2023-09-07T13:05:07;39.20;81.40
8220;DHT22;4151;51.110;7.020;2023-09-07T13:07:33;39.40;79.00
8220;DHT22;4151;51.110;7.020;2023-09-07T13:10:04;39.80;77.60
8220;DHT22;4151;51.110;7.020;2023-09-07T13:12:31;40.20;77.40
8220;DHT22;4151;51.110;7.020;2023-09-07T13:14:57;40.40;77.60
8220;DHT22;4151;51.110;7.020;2023-09-07T13:17:22;41.00;75.70
8220;DHT22;4151;51.110;7.020;2023-09-07T13:19:48;40.90;72.60
8220;DHT22;4151;51.110;7.020;2023-09-07T13:22:13;40.30;73.40
8220;DHT22;4151;51.110;7.020;2023-09-07T13:24:39;40.30;74.30
8220;DHT22;4151;51.110;7.020;2023-09-07T13:27:05;39.90;72.80
8220;DHT22;4151;51.110;7.020;2023-09-07T13:29:31;40.20;72.00
8220;DHT22;4151;51.110;7.020;2023-09-07T13:31:58;41.00;71.00
8220;DHT22;4151;51.110;7.020;2023-09-07T13:34:24;41.80;70.90
8220;DHT22;4151;51.110;7.020;2023-09-07T13:36:50;42.20;69.70
8220;DHT22;4151;51.110;7.020;2023-09-07T13:39:15;41.90;70.00
8220;DHT22;4151;51.110;7.020;2023-09-07T13:41:41;41.90;68.00
8220;DHT22;4151;51.110;7.020;2023-09-07T13:44:07;41.70;66.10
8220;DHT22;4151;51.110;7.020;2023-09-07T13:46:33;41.70;66.30
8220;DHT22;4151;51.110;7.020;2023-09-07T13:48:59;41.70;66.90
8220;DHT22;4151;51.110;7.020;2023-09-07T13:51:25;41.20;67.60
8220;DHT22;4151;51.110;7.020;2023-09-07T13:53:51;40.60;67.60
8220;DHT22;4151;51.110;7.020;2023-09-07T13:56:17;40.20;68.00
8220;DHT22;4151;51.110;7.020;2023-09-07T13:58:43;40.80;70.10
8220;DHT22;4151;51.110;7.020;2023-09-07T14:01:09;41.20;69.10
8220;DHT22;4151;51.110;7.020;2023-09-07T14:03:34;42.10;66.20
8220;DHT22;4151;51.110;7.020;2023-09-07T14:06:02;42.40;66.70
8220;DHT22;4151;51.110;7.020;2023-09-07T14:08:27;42.90;63.20
8220;DHT22;4151;51.110;7.020;2023-09-07T14:10:53;42.60;64.30
8220;DHT22;4151;51.110;7.020;2023-09-07T14:13:19;42.30;64.20
8220;DHT22;4151;51.110;7.020;2023-09-07T14:15:45;42.00;63.10
8220;DHT22;4151;51.110;7.020;2023-09-07T14:18:11;42.40;63.30
8220;DHT22;4151;51.110;7.020;2023-09-07T14:20:37;43.00;61.50
8220;DHT22;4151;51.110;7.020;2023-09-07T14:23:02;42.40;61.10
8220;DHT22;4151;51.110;7.020;2023-09-07T14:25:28;41.60;61.00
8220;DHT22;4151;51.110;7.020;2023-09-07T14:27:53;41.10;65.00
8220;DHT22;4151;51.110;7.020;2023-09-07T14:30:19;41.40;63.10
8220;DHT22;4151;51.110;7.020;2023-09-07T14:32:45;42.10;64.20
8220;DHT22;4151;51.110;7.020;2023-09-07T14:35:12;43.30;62.30
8220;DHT22;4151;51.110;7.020;2023-09-07T14:37:38;43.60;59.20
8220;DHT22;4151;51.110;7.020;2023-09-07T14:40:04;44.10;60.70
8220;DHT22;4151;51.110;7.020;2023-09-07T14:42:30;43.90;60.70
8220;DHT22;4151;51.110;7.020;2023-09-07T14:44:55;45.20;60.30
8220;DHT22;4151;51.110;7.020;2023-09-07T14:47:22;45.10;57.80
8220;DHT22;4151;51.110;7.020;2023-09-07T14:49:51;44.80;60.80
8220;DHT22;4151;51.110;7.020;2023-09-07T14:52:17;45.10;58.90
8220;DHT22;4151;51.110;7.020;2023-09-07T14:54:43;45.30;59.10
8220;DHT22;4151;51.110;7.020;2023-09-07T14:57:09;45.60;58.90
8220;DHT22;4151;51.110;7.020;2023-09-07T14:59:34;46.60;58.80
8220;DHT22;4151;51.110;7.020;2023-09-07T15:02:00;47.60;57.90
8220;DHT22;4151;51.110;7.020;2023-09-07T15:04:25;47.70;56.60
8220;DHT22;4151;51.110;7.020;2023-09-07T15:06:51;47.40;55.60
8220;DHT22;4151;51.110;7.020;2023-09-07T15:09:17;46.20;56.30
8220;DHT22;4151;51.110;7.020;2023-09-07T15:11:42;46.10;57.60
8220;DHT22;4151;51.110;7.020;2023-09-07T15:14:08;45.70;58.20
8220;DHT22;4151;51.110;7.020;2023-09-07T15:16:34;45.50;58.40
8220;DHT22;4151;51.110;7.020;2023-09-07T15:18:59;46.30;58.10
8220;DHT22;4151;51.110;7.020;2023-09-07T15:21:26;47.30;56.60
8220;DHT22;4151;51.110;7.020;2023-09-07T15:23:51;46.50;58.20
8220;DHT22;4151;51.110;7.020;2023-09-07T15:26:17;46.90;56.90
8220;DHT22;4151;51.110;7.020;2023-09-07T15:28:43;46.50;57.10
8220;DHT22;4151;51.110;7.020;2023-09-07T15:31:08;46.70;55.50
8220;DHT22;4151;51.110;7.020;2023-09-07T15:33:34;46.00;56.30
8220;DHT22;4151;51.110;7.020;2023-09-07T15:36:00;45.90;56.60
8220;DHT22;4151;51.110;7.020;2023-09-07T15:38:26;44.70;56.10
8220;DHT22;4151;51.110;7.020;2023-09-07T15:40:53;43.90;58.20
8220;DHT22;4151;51.110;7.020;2023-09-07T15:43:19;44.20;58.30
8220;DHT22;4151;51.110;7.020;2023-09-07T15:45:45;44.00;58.00
8220;DHT22;4151;51.110;7.020;2023-09-07T15:48:11;43.90;58.90
8220;DHT22;4151;51.110;7.020;2023-09-07T15:50:38;44.30;58.20
8220;DHT22;4151;51.110;7.020;2023-09-07T15:53:04;44.40;58.50
8220;DHT22;4151;51.110;7.020;2023-09-07T15:55:29;44.70;58.60
8220;DHT22;4151;51.110;7.020;2023-09-07T15:57:55;44.70;57.60